Anne Sibum — C4YC2 — position and weather

sailwx.info

Track history (hours):
 
Tides and Currents Weather Stations Pressure Air Temp Water Temp Dewpoint Dewpoint Depression Visibility Wind Speed Wind Dir Waves Ship Positions

Anne Sibum

Last reported at 2014-Oct-30 09:15 UTC. Time now 2014-Oct-31 13:00 UTC.
Position N 54°55' E 010°54'.

Length 151 m; draft 7.1 m.

Type: Ship (hazmat cat A). MMSI: 209322000.

Date/timePositionNaut miles runAvg speedWind from/ knotsBaromVisibWave heightAir tempDewpointWater temp
2014-Oct-30 09:15N 54°55' E 010°54'43 5.5
2014-Oct-30 01:33N 54°22' E 010°07'0 0.3
2014-Oct-30 00:33N 54°22' E 010°06'2 2.2
2014-Oct-29 23:33N 54°22' E 010°02'4 4.3
2014-Oct-29 22:33N 54°21' E 009°55'7 6.2
2014-Oct-29 21:28N 54°20' E 009°44'6 7.1
2014-Oct-29 20:33N 54°15' E 009°37'8 7.6
2014-Oct-29 19:33N 54°10' E 009°26'5 5.2
2014-Oct-29 18:33N 54°07' E 009°20'8 8.1
2014-Oct-29 17:33N 53°59' E 009°17'7 7.0
2014-Oct-29 16:33N 53°54' E 009°09'1 1.4
2014-Oct-29 15:34N 53°53' E 009°07'3 2.6
2014-Oct-29 14:33N 53°53' E 009°11'1010.0
2014-Oct-29 13:33N 53°46' E 009°24'1414.3
2014-Oct-29 12:33N 53°35' E 009°38'1010.4
2014-Oct-29 11:33N 53°32' E 009°55'0 0.1
2014-Oct-29 10:29N 53°32' E 009°55'0 0.0
2014-Oct-29 09:32N 53°32' E 009°55'0 0.0
2014-Oct-29 08:25N 53°32' E 009°55'0 0.0
2014-Oct-29 07:32N 53°32' E 009°55'0 0.0
2014-Oct-29 06:27N 53°32' E 009°55'0 0.0
2014-Oct-29 05:31N 53°32' E 009°55'0 0.0
2014-Oct-29 04:21N 53°32' E 009°55'0 0.0
2014-Oct-29 03:32N 53°32' E 009°55'0 0.0
2014-Oct-29 02:33N 53°32' E 009°55'0 0.4
2014-Oct-29 01:30N 53°32' E 009°55'0 0.0
2014-Oct-29 00:32N 53°32' E 009°55'0 0.0
2014-Oct-28 23:32N 53°32' E 009°55'0 0.0
2014-Oct-28 22:32N 53°32' E 009°55'0 0.0
2014-Oct-28 21:33N 53°32' E 009°55'0 0.2
2014-Oct-28 20:33N 53°32' E 009°55'1 1.2
2014-Oct-28 19:33N 53°32' E 009°57'0 0.0
2014-Oct-28 18:33N 53°32' E 009°57'0 0.0
2014-Oct-28 17:20N 53°32' E 009°57'0 0.0
2014-Oct-28 16:26N 53°32' E 009°57'0 0.0
2014-Oct-28 15:07N 53°32' E 009°57'0 0.0
2014-Oct-28 14:29N 53°32' E 009°57'0 0.0
2014-Oct-28 13:33N 53°32' E 009°57'2 1.6
2014-Oct-28 12:22N 53°30' E 009°56'0 0.0
2014-Oct-28 11:28N 53°30' E 009°56'0 0.0
2014-Oct-28 10:27N 53°30' E 009°56'0 0.0
2014-Oct-28 09:27N 53°30' E 009°56'0 0.0
2014-Oct-28 08:32N 53°30' E 009°56'0 0.0
2014-Oct-28 07:29N 53°30' E 009°56'0 0.0
2014-Oct-28 06:28N 53°30' E 009°56'0 0.0
2014-Oct-28 05:33N 53°30' E 009°56'2 2.2
2014-Oct-28 04:33N 53°32' E 009°56'1212.1
2014-Oct-28 03:33N 53°36' E 009°36'1615.7
2014-Oct-28 02:34N 53°49' E 009°22'1414.4
2014-Oct-28 01:33N 53°51' E 008°58'1515.2
2014-Oct-28 00:34N 53°58' E 008°35'1616.2
2014-Oct-27 23:33N 53°59' E 008°07'9 8.7
2014-Oct-27 22:33N 53°51' E 007°60'1313.2
2014-Oct-27 21:33N 53°43' E 008°17'1211.5
2014-Oct-27 20:31N 53°35' E 008°32'0 0.0
2014-Oct-27 19:32N 53°35' E 008°32'0 0.0
2014-Oct-27 18:34N 53°35' E 008°32'1 1.4
2014-Oct-27 17:31N 53°36' E 008°31'0 0.0
2014-Oct-27 16:28N 53°36' E 008°31'0 0.0
2014-Oct-27 15:33N 53°36' E 008°31'0 0.0
2014-Oct-27 14:33N 53°36' E 008°31'0 0.0
2014-Oct-27 13:32N 53°36' E 008°31'0 0.0
2014-Oct-27 12:32N 53°36' E 008°31'0 0.0
2014-Oct-27 11:32N 53°36' E 008°31'0 0.0
2014-Oct-27 10:31N 53°36' E 008°31'0 0.0
2014-Oct-27 09:31N 53°36' E 008°31'2 2.2
2014-Oct-27 08:34N 53°37' E 008°28'1414.0
2014-Oct-27 07:34N 53°46' E 008°10'1211.2
2014-Oct-27 06:29N 53°55' E 007°55'1313.9
2014-Oct-27 05:33N 54°01' E 008°14'1716.6
2014-Oct-27 04:33N 53°55' E 008°41'1313.5
2014-Oct-27 03:34N 53°52' E 009°03'4 3.7
2014-Oct-27 02:33N 53°54' E 009°09'7 6.7
2014-Oct-27 01:32N 53°59' E 009°16'15 4.8
2014-Oct-26 22:27N 54°11' E 009°30'2 2.3
2014-Oct-26 21:33N 54°12' E 009°33'6 6.3
2014-Oct-26 20:34N 54°17' E 009°39'4 4.4
2014-Oct-26 19:33N 54°20' E 009°44'6 5.8
2014-Oct-26 18:33N 54°21' E 009°54'6 5.6
2014-Oct-26 17:33N 54°22' E 010°04'3 2.9
2014-Oct-26 16:34N 54°22' E 010°08'1 1.3
2014-Oct-26 15:33N 54°22' E 010°10'10 9.7
2014-Oct-26 14:33N 54°30' E 010°20'1312.3
2014-Oct-26 13:31N 54°35' E 010°41'2512.5
2014-Oct-26 11:33N 54°33' E 011°23'1313.5
2014-Oct-26 10:33N 54°28' E 011°45'1413.9
2014-Oct-26 09:33N 54°26' E 012°09'2813.8
2014-Oct-26 07:32N 54°47' E 012°41'1514.5
2014-Oct-26 06:30N 54°52' E 013°06'1914.7
2014-Oct-26 05:11N 54°59' E 013°37'914.9
2014-Oct-26 04:33N 55°03' E 013°52'1514.6
2014-Oct-26 03:33N 55°10' E 014°14'1515.0
2014-Oct-26 02:33N 55°22' E 014°30'1514.7
2014-Oct-26 01:33N 55°31' E 014°51'1514.8
2014-Oct-26 00:33N 55°39' E 015°13'2014.8
2014-Oct-25 23:13N 55°48' E 015°44'8913.4
2014-Oct-25 16:33N 57°01' E 017°19'1313.3
2014-Oct-25 15:33N 57°13' E 017°29'1412.8
2014-Oct-25 14:28N 57°26' E 017°39'  
2014-Oct-22 21:34N 59°31' E 021°19'5515.8
2014-Oct-22 18:06N 59°37' E 023°06'916.0
2014-Oct-22 17:33N 59°39' E 023°23'1616.0
2014-Oct-22 16:33N 59°43' E 023°53'4515.0
2014-Oct-22 13:33N 60°06' E 025°11'7 3.3
2014-Oct-22 11:25N 60°13' E 025°11'0 0.0
2014-Oct-22 10:31N 60°13' E 025°11'0 0.0
2014-Oct-22 09:31N 60°13' E 025°11'0 0.0
2014-Oct-22 08:33N 60°13' E 025°11'0 0.0
2014-Oct-22 07:33N 60°13' E 025°11'0 0.0
2014-Oct-22 06:32N 60°13' E 025°11'0 0.0
2014-Oct-22 05:32N 60°13' E 025°11'0 0.0
2014-Oct-22 04:31N 60°13' E 025°11'0 0.0
2014-Oct-22 03:31N 60°13' E 025°11'0 0.0
2014-Oct-22 02:31N 60°13' E 025°11'1 1.0
2014-Oct-22 01:33N 60°12' E 025°13'2811.7
2014-Oct-21 23:09N 59°48' E 024°47'813.7
2014-Oct-21 22:33N 59°45' E 024°32'2813.6
2014-Oct-21 20:30N 59°36' E 023°39'36015.0
2014-Oct-20 20:32N 55°36' E 015°19'1616.7
2014-Oct-20 19:33N 55°28' E 014°54'1616.1
2014-Oct-20 18:33N 55°18' E 014°32'1616.0
2014-Oct-20 17:33N 55°06' E 014°14'1616.2
2014-Oct-20 16:33N 54°57' E 013°50'6816.8
2014-Oct-20 12:30N 54°25' E 012°06'5117.5
2014-Oct-20 09:33N 54°33' E 010°39'  
Track history (hours):
 
Tides and Currents Weather Stations Pressure Air Temp Water Temp Dewpoint Dewpoint Depression Visibility Wind Speed Wind Dir Waves Ship Positions

Anne Sibum

Last reported at 2014-Oct-30 09:15 UTC. Time now 2014-Oct-31 13:00 UTC.
Position N 54°55' E 010°54'.

Length 151 m; draft 7.1 m.

Type: Ship (hazmat cat A). MMSI: 209322000.

Date/timePositionNaut miles runAvg speedWind from/ knotsBaromVisibWave heightAir tempDewpointWater temp
2014-Oct-30 09:15N 54°55' E 010°54'43 5.5
2014-Oct-30 01:33N 54°22' E 010°07'0 0.3
2014-Oct-30 00:33N 54°22' E 010°06'2 2.2
2014-Oct-29 23:33N 54°22' E 010°02'4 4.3
2014-Oct-29 22:33N 54°21' E 009°55'7 6.2
2014-Oct-29 21:28N 54°20' E 009°44'6 7.1
2014-Oct-29 20:33N 54°15' E 009°37'8 7.6
2014-Oct-29 19:33N 54°10' E 009°26'5 5.2
2014-Oct-29 18:33N 54°07' E 009°20'8 8.1
2014-Oct-29 17:33N 53°59' E 009°17'7 7.0
2014-Oct-29 16:33N 53°54' E 009°09'1 1.4
2014-Oct-29 15:34N 53°53' E 009°07'3 2.6
2014-Oct-29 14:33N 53°53' E 009°11'1010.0
2014-Oct-29 13:33N 53°46' E 009°24'1414.3
2014-Oct-29 12:33N 53°35' E 009°38'1010.4
2014-Oct-29 11:33N 53°32' E 009°55'0 0.1
2014-Oct-29 10:29N 53°32' E 009°55'0 0.0
2014-Oct-29 09:32N 53°32' E 009°55'0 0.0
2014-Oct-29 08:25N 53°32' E 009°55'0 0.0
2014-Oct-29 07:32N 53°32' E 009°55'0 0.0
2014-Oct-29 06:27N 53°32' E 009°55'0 0.0
2014-Oct-29 05:31N 53°32' E 009°55'0 0.0
2014-Oct-29 04:21N 53°32' E 009°55'0 0.0
2014-Oct-29 03:32N 53°32' E 009°55'0 0.0
2014-Oct-29 02:33N 53°32' E 009°55'0 0.4
2014-Oct-29 01:30N 53°32' E 009°55'0 0.0
2014-Oct-29 00:32N 53°32' E 009°55'0 0.0
2014-Oct-28 23:32N 53°32' E 009°55'0 0.0
2014-Oct-28 22:32N 53°32' E 009°55'0 0.0
2014-Oct-28 21:33N 53°32' E 009°55'0 0.2
2014-Oct-28 20:33N 53°32' E 009°55'1 1.2
2014-Oct-28 19:33N 53°32' E 009°57'0 0.0
2014-Oct-28 18:33N 53°32' E 009°57'0 0.0
2014-Oct-28 17:20N 53°32' E 009°57'0 0.0
2014-Oct-28 16:26N 53°32' E 009°57'0 0.0
2014-Oct-28 15:07N 53°32' E 009°57'0 0.0
2014-Oct-28 14:29N 53°32' E 009°57'0 0.0
2014-Oct-28 13:33N 53°32' E 009°57'2 1.6
2014-Oct-28 12:22N 53°30' E 009°56'0 0.0
2014-Oct-28 11:28N 53°30' E 009°56'0 0.0
2014-Oct-28 10:27N 53°30' E 009°56'0 0.0
2014-Oct-28 09:27N 53°30' E 009°56'0 0.0
2014-Oct-28 08:32N 53°30' E 009°56'0 0.0
2014-Oct-28 07:29N 53°30' E 009°56'0 0.0
2014-Oct-28 06:28N 53°30' E 009°56'0 0.0
2014-Oct-28 05:33N 53°30' E 009°56'2 2.2
2014-Oct-28 04:33N 53°32' E 009°56'1212.1
2014-Oct-28 03:33N 53°36' E 009°36'1615.7
2014-Oct-28 02:34N 53°49' E 009°22'1414.4
2014-Oct-28 01:33N 53°51' E 008°58'1515.2
2014-Oct-28 00:34N 53°58' E 008°35'1616.2
2014-Oct-27 23:33N 53°59' E 008°07'9 8.7
2014-Oct-27 22:33N 53°51' E 007°60'1313.2
2014-Oct-27 21:33N 53°43' E 008°17'1211.5
2014-Oct-27 20:31N 53°35' E 008°32'0 0.0
2014-Oct-27 19:32N 53°35' E 008°32'0 0.0
2014-Oct-27 18:34N 53°35' E 008°32'1 1.4
2014-Oct-27 17:31N 53°36' E 008°31'0 0.0
2014-Oct-27 16:28N 53°36' E 008°31'0 0.0
2014-Oct-27 15:33N 53°36' E 008°31'0 0.0
2014-Oct-27 14:33N 53°36' E 008°31'0 0.0
2014-Oct-27 13:32N 53°36' E 008°31'0 0.0
2014-Oct-27 12:32N 53°36' E 008°31'0 0.0
2014-Oct-27 11:32N 53°36' E 008°31'0 0.0
2014-Oct-27 10:31N 53°36' E 008°31'0 0.0
2014-Oct-27 09:31N 53°36' E 008°31'2 2.2
2014-Oct-27 08:34N 53°37' E 008°28'1414.0
2014-Oct-27 07:34N 53°46' E 008°10'1211.2
2014-Oct-27 06:29N 53°55' E 007°55'1313.9
2014-Oct-27 05:33N 54°01' E 008°14'1716.6
2014-Oct-27 04:33N 53°55' E 008°41'1313.5
2014-Oct-27 03:34N 53°52' E 009°03'4 3.7
2014-Oct-27 02:33N 53°54' E 009°09'7 6.7
2014-Oct-27 01:32N 53°59' E 009°16'15 4.8
2014-Oct-26 22:27N 54°11' E 009°30'2 2.3
2014-Oct-26 21:33N 54°12' E 009°33'6 6.3
2014-Oct-26 20:34N 54°17' E 009°39'4 4.4
2014-Oct-26 19:33N 54°20' E 009°44'6 5.8
2014-Oct-26 18:33N 54°21' E 009°54'6 5.6
2014-Oct-26 17:33N 54°22' E 010°04'3 2.9
2014-Oct-26 16:34N 54°22' E 010°08'1 1.3
2014-Oct-26 15:33N 54°22' E 010°10'10 9.7
2014-Oct-26 14:33N 54°30' E 010°20'1312.3
2014-Oct-26 13:31N 54°35' E 010°41'2512.5
2014-Oct-26 11:33N 54°33' E 011°23'1313.5
2014-Oct-26 10:33N 54°28' E 011°45'1413.9
2014-Oct-26 09:33N 54°26' E 012°09'2813.8
2014-Oct-26 07:32N 54°47' E 012°41'1514.5
2014-Oct-26 06:30N 54°52' E 013°06'1914.7
2014-Oct-26 05:11N 54°59' E 013°37'914.9
2014-Oct-26 04:33N 55°03' E 013°52'1514.6
2014-Oct-26 03:33N 55°10' E 014°14'1515.0
2014-Oct-26 02:33N 55°22' E 014°30'1514.7
2014-Oct-26 01:33N 55°31' E 014°51'1514.8
2014-Oct-26 00:33N 55°39' E 015°13'2014.8
2014-Oct-25 23:13N 55°48' E 015°44'8913.4
2014-Oct-25 16:33N 57°01' E 017°19'1313.3
2014-Oct-25 15:33N 57°13' E 017°29'1412.8
2014-Oct-25 14:28N 57°26' E 017°39'  
2014-Oct-22 21:34N 59°31' E 021°19'5515.8
2014-Oct-22 18:06N 59°37' E 023°06'916.0
2014-Oct-22 17:33N 59°39' E 023°23'1616.0
2014-Oct-22 16:33N 59°43' E 023°53'4515.0
2014-Oct-22 13:33N 60°06' E 025°11'7 3.3
2014-Oct-22 11:25N 60°13' E 025°11'0 0.0
2014-Oct-22 10:31N 60°13' E 025°11'0 0.0
2014-Oct-22 09:31N 60°13' E 025°11'0 0.0
2014-Oct-22 08:33N 60°13' E 025°11'0 0.0
2014-Oct-22 07:33N 60°13' E 025°11'0 0.0
2014-Oct-22 06:32N 60°13' E 025°11'0 0.0
2014-Oct-22 05:32N 60°13' E 025°11'0 0.0
2014-Oct-22 04:31N 60°13' E 025°11'0 0.0
2014-Oct-22 03:31N 60°13' E 025°11'0 0.0
2014-Oct-22 02:31N 60°13' E 025°11'1 1.0
2014-Oct-22 01:33N 60°12' E 025°13'2811.7
2014-Oct-21 23:09N 59°48' E 024°47'813.7
2014-Oct-21 22:33N 59°45' E 024°32'2813.6
2014-Oct-21 20:30N 59°36' E 023°39'36015.0
2014-Oct-20 20:32N 55°36' E 015°19'1616.7
2014-Oct-20 19:33N 55°28' E 014°54'1616.1
2014-Oct-20 18:33N 55°18' E 014°32'1616.0
2014-Oct-20 17:33N 55°06' E 014°14'1616.2
2014-Oct-20 16:33N 54°57' E 013°50'6816.8
2014-Oct-20 12:30N 54°25' E 012°06'5117.5
2014-Oct-20 09:33N 54°33' E 010°39'  

Dump ship's entire track history